Time;durP1;ratioP1;P1;durP2;ratioP2;P2;SDS_P1;SDS_P2;PMS_P1;PMS_P2;Temp;Humidity;BMP_temperature;BMP_pressure;BME280_temperature;BME280_humidity;BME280_pressure;Samples;Min_cycle;Max_cycle;Signal;HPM_P1;HPM_P2
2023/04/06 00:00:21;;;;;;;9.43;6.28;;;;;;;0.87;100.00;101945.91;10191246;28;20048;-73
2023/04/06 00:05:19;;;;;;;11.88;7.88;;;;;;;0.78;100.00;101939.97;10188628;28;20527;-72
2023/04/06 00:10:16;;;;;;;11.20;7.55;;;;;;;0.74;100.00;101943.34;10195552;28;20129;-72
2023/04/06 00:15:13;;;;;;;11.18;7.10;;;;;;;0.70;100.00;101942.16;10190545;28;20111;-72
2023/04/06 00:20:10;;;;;;;8.57;7.07;;;;;;;0.67;100.00;101937.19;10190742;28;20070;-72
2023/04/06 00:25:07;;;;;;;11.32;8.02;;;;;;;0.61;100.00;101934.34;10189238;28;20074;-72
2023/04/06 00:30:05;;;;;;;12.30;7.90;;;;;;;0.54;100.00;101928.22;10187246;28;20045;-74
2023/04/06 00:35:03;;;;;;;11.43;8.45;;;;;;;0.53;100.00;101926.53;10186243;28;20050;-73
2023/04/06 00:40:00;;;;;;;11.05;7.47;;;;;;;0.43;100.00;101914.66;10189799;28;20052;-70
2023/04/06 00:44:59;;;;;;;11.00;7.80;;;;;;;0.47;100.00;101919.38;10187543;28;20042;-72
2023/04/06 00:49:56;;;;;;;10.75;7.35;;;;;;;0.41;100.00;101914.88;10192953;28;20101;-73
2023/04/06 00:54:52;;;;;;;11.45;7.75;;;;;;;0.38;100.00;101913.44;10197239;28;20062;-73
2023/04/06 00:59:49;;;;;;;8.95;6.70;;;;;;;0.36;100.00;101909.31;10200570;28;21263;-73
2023/04/06 01:04:45;;;;;;;10.88;7.53;;;;;;;0.34;100.00;101903.34;10187526;28;20132;-72
2023/04/06 01:09:42;;;;;;;11.65;7.30;;;;;;;0.32;100.00;101908.13;10189692;28;20046;-72
2023/04/06 01:14:38;;;;;;;11.98;7.32;;;;;;;0.28;100.00;101890.75;10192586;28;20076;-72
2023/04/06 01:19:36;;;;;;;11.77;7.95;;;;;;;0.28;100.00;101901.53;10187081;28;20528;-73
2023/04/06 01:24:33;;;;;;;10.25;7.20;;;;;;;0.19;100.00;101895.63;10194226;28;20148;-74
2023/04/06 01:34:41;;;;;;;9.15;7.30;;;;;;;0.07;100.00;101883.91;10275864;23;20122;-72
2023/04/06 01:39:38;;;;;;;10.80;7.90;;;;;;;0.01;100.00;101890.19;10198530;28;20054;-72
2023/04/06 01:44:34;;;;;;;15.48;8.00;;;;;;;0.01;100.00;101885.63;10188738;28;20088;-72
2023/04/06 01:49:31;;;;;;;10.93;7.68;;;;;;;-0.05;100.00;101881.09;10170917;28;20033;-72
2023/04/06 01:54:27;;;;;;;9.50;7.07;;;;;;;-0.10;100.00;101881.75;10199498;28;20049;-72
2023/04/06 01:59:24;;;;;;;9.68;7.18;;;;;;;-0.17;100.00;101882.84;10189763;28;20141;-71
2023/04/06 02:04:21;;;;;;;11.38;7.75;;;;;;;-0.24;100.00;101872.97;10182039;28;20688;-71
2023/04/06 02:09:17;;;;;;;12.85;7.35;;;;;;;-0.22;100.00;101870.88;10192278;28;20049;-71
2023/04/06 02:14:14;;;;;;;9.90;6.80;;;;;;;-0.26;100.00;101864.28;10189332;28;20496;-73
2023/04/06 02:19:11;;;;;;;11.98;6.63;;;;;;;-0.27;100.00;101859.97;10194276;28;20076;-71
2023/04/06 02:24:08;;;;;;;10.25;6.95;;;;;;;-0.35;100.00;101862.91;10177745;28;20475;-71
2023/04/06 02:29:05;;;;;;;14.15;7.53;;;;;;;-0.34;100.00;101856.50;10190686;28;20034;-72
2023/04/06 02:34:02;;;;;;;11.75;7.50;;;;;;;-0.37;100.00;101865.00;10182720;28;20053;-73
2023/04/06 02:38:59;;;;;;;11.18;7.85;;;;;;;-0.38;100.00;101854.47;10179214;28;20038;-72
2023/04/06 02:43:55;;;;;;;15.60;8.00;;;;;;;-0.40;100.00;101862.72;10191801;28;20053;-71
2023/04/06 02:48:52;;;;;;;9.82;6.70;;;;;;;-0.40;100.00;101862.72;10186959;28;20104;-74
2023/04/06 02:53:48;;;;;;;10.68;7.35;;;;;;;-0.42;100.00;101867.50;10187156;28;20137;-71
2023/04/06 02:58:45;;;;;;;9.55;7.25;;;;;;;-0.44;100.00;101861.53;10180482;28;20038;-71
2023/04/06 03:03:41;;;;;;;13.57;7.45;;;;;;;-0.48;100.00;101865.69;10177760;28;20099;-70
2023/04/06 03:08:38;;;;;;;11.60;7.47;;;;;;;-0.50;100.00;101862.38;10180903;28;20042;-70
2023/04/06 03:13:36;;;;;;;13.05;8.52;;;;;;;-0.58;100.00;101865.31;10190409;28;20049;-70
2023/04/06 03:18:32;;;;;;;11.98;8.00;;;;;;;-0.51;100.00;101868.78;10184433;28;20076;-70
2023/04/06 03:23:29;;;;;;;10.55;7.63;;;;;;;-0.34;100.00;101861.06;10179412;28;20054;-70
2023/04/06 03:28:26;;;;;;;10.25;7.93;;;;;;;-0.29;100.00;101875.47;10185417;28;20033;-70
2023/04/06 03:33:22;;;;;;;9.70;7.28;;;;;;;-0.23;100.00;101874.63;10195272;28;20045;-73
2023/04/06 03:38:19;;;;;;;9.90;8.02;;;;;;;-0.24;100.00;101872.97;10187820;28;20049;-70
2023/04/06 03:43:15;;;;;;;9.32;7.70;;;;;;;-0.33;100.00;101868.88;10177819;28;20069;-73
2023/04/06 03:48:12;;;;;;;10.20;8.02;;;;;;;-0.35;100.00;101876.34;10185615;28;20034;-73
2023/04/06 03:53:08;;;;;;;11.80;9.00;;;;;;;-0.39;100.00;101875.13;10183527;28;20065;-73
2023/04/06 03:58:05;;;;;;;11.60;8.77;;;;;;;-0.46;100.00;101885.94;10188783;28;20045;-73
2023/04/06 04:03:02;;;;;;;10.57;8.45;;;;;;;-0.51;100.00;101887.59;10177231;28;20069;-69
2023/04/06 04:07:58;;;;;;;13.63;9.05;;;;;;;-0.52;100.00;101885.97;10180904;28;20491;-72
2023/04/06 04:12:55;;;;;;;11.85;9.35;;;;;;;-0.59;100.00;101885.16;10188967;28;20050;-72
2023/04/06 04:17:51;;;;;;;11.50;8.95;;;;;;;-0.58;100.00;101893.03;10196259;28;20499;-72
2023/04/06 04:22:48;;;;;;;11.80;9.27;;;;;;;-0.61;100.00;101892.63;10184165;28;20053;-73
2023/04/06 04:27:45;;;;;;;12.70;9.68;;;;;;;-0.60;100.00;101894.25;10169157;28;20045;-71
2023/04/06 04:32:42;;;;;;;13.50;10.65;;;;;;;-0.68;100.00;101892.66;10185244;28;20073;-71
2023/04/06 04:37:41;;;;;;;13.02;10.25;;;;;;;-0.74;100.00;101899.72;10181900;28;20132;-69
2023/04/06 04:42:37;;;;;;;11.13;9.73;;;;;;;-0.76;100.00;101901.78;10176799;28;20057;-70
2023/04/06 04:47:34;;;;;;;14.25;10.05;;;;;;;-0.79;100.00;101902.22;10179535;28;20069;-69
2023/04/06 04:52:30;;;;;;;14.07;10.10;;;;;;;-0.87;100.00;101894.38;10180431;28;20049;-69
2023/04/06 04:57:30;;;;;;;13.13;9.82;;;;;;;-0.86;100.00;101896.03;10169938;28;20045;-69
2023/04/06 05:02:26;;;;;;;12.98;10.07;;;;;;;-0.91;100.00;101899.34;10175823;28;20053;-69
2023/04/06 05:07:23;;;;;;;11.98;9.88;;;;;;;-0.83;100.00;101894.81;10168021;28;20060;-68
2023/04/06 05:12:20;;;;;;;12.52;10.13;;;;;;;-0.80;100.00;101895.19;10157950;28;20081;-68
2023/04/06 05:17:18;;;;;;;11.63;10.07;;;;;;;-0.78;100.00;101892.28;10163163;28;20088;-68
2023/04/06 05:22:17;;;;;;;15.52;10.80;;;;;;;-0.76;100.00;101885.66;10176786;28;20042;-68
2023/04/06 05:27:13;;;;;;;14.50;10.07;;;;;;;-0.76;100.00;101907.16;10166524;28;20144;-68
2023/04/06 05:32:10;;;;;;;15.43;10.60;;;;;;;-0.72;100.00;101897.63;10177058;28;20050;-68
2023/04/06 05:37:07;;;;;;;13.93;10.70;;;;;;;-0.69;100.00;101897.19;10171343;28;20128;-68
2023/04/06 05:42:06;;;;;;;18.92;11.00;;;;;;;-0.65;100.00;101909.19;10168330;28;20046;-68
2023/04/06 05:47:02;;;;;;;13.48;11.10;;;;;;;-0.58;100.00;101900.25;10181354;28;20492;-67
2023/04/06 05:51:59;;;;;;;20.63;11.73;;;;;;;-0.54;100.00;101893.41;10181723;28;20125;-68
2023/04/06 05:56:56;;;;;;;16.90;11.40;;;;;;;-0.53;100.00;101895.06;10177590;28;20048;-68
2023/04/06 06:01:52;;;;;;;15.95;11.30;;;;;;;-0.39;100.00;101895.81;10185611;28;20054;-68
2023/04/06 06:06:48;;;;;;;16.55;12.20;;;;;;;-0.37;100.00;101897.25;10174473;28;20458;-68
2023/04/06 06:11:46;;;;;;;14.68;11.65;;;;;;;-0.29;100.00;101890.78;10167297;28;20125;-68
2023/04/06 06:16:42;;;;;;;12.77;11.43;;;;;;;-0.18;100.00;101891.97;10154757;28;20049;-68
2023/04/06 06:21:39;;;;;;;15.73;12.18;;;;;;;-0.11;100.00;101895.44;10174299;28;20108;-68
2023/04/06 06:26:36;;;;;;;20.13;11.60;;;;;;;0.04;100.00;101895.91;10174571;28;20055;-68
2023/04/06 06:31:33;;;;;;;15.65;11.75;;;;;;;0.17;100.00;101887.75;10172745;28;20078;-68
2023/04/06 06:36:31;;;;;;;18.95;12.13;;;;;;;0.27;100.00;101889.13;10184092;28;20057;-68
2023/04/06 06:41:27;;;;;;;16.55;12.65;;;;;;;0.37;100.00;101895.66;10175819;28;20049;-68
2023/04/06 06:46:24;;;;;;;15.27;12.65;;;;;;;0.44;100.00;101894.75;10172038;28;20050;-68
2023/04/06 06:51:21;;;;;;;16.92;13.05;;;;;;;0.69;100.00;101898.25;10163855;28;20046;-68
2023/04/06 06:56:18;;;;;;;14.63;11.85;;;;;;;0.89;100.00;101886.44;10161855;28;20554;-68
2023/04/06 07:01:14;;;;;;;13.75;12.43;;;;;;;1.01;100.00;101885.47;10183445;28;20074;-68
2023/04/06 07:06:11;;;;;;;14.50;12.85;;;;;;;1.21;100.00;101879.03;10161929;28;20042;-68
2023/04/06 07:11:07;;;;;;;12.07;10.43;;;;;;;1.44;100.00;101884.53;10182187;28;20056;-68
2023/04/06 07:16:04;;;;;;;11.73;10.40;;;;;;;1.69;100.00;101886.22;10152788;28;20097;-68
2023/04/06 07:21:01;;;;;;;10.73;9.65;;;;;;;1.93;100.00;101872.81;10178425;28;20125;-68
2023/04/06 07:25:57;;;;;;;14.95;10.38;;;;;;;2.23;100.00;101881.66;10190302;28;20053;-68
2023/04/06 07:30:54;;;;;;;11.65;9.38;;;;;;;2.30;100.00;101876.97;10168789;28;20054;-68
2023/04/06 07:35:51;;;;;;;13.38;11.00;;;;;;;2.49;100.00;101879.56;10164045;28;20188;-68
2023/04/06 07:40:48;;;;;;;11.48;9.35;;;;;;;2.76;100.00;101860.97;10165473;28;20523;-68
2023/04/06 07:45:45;;;;;;;10.85;8.80;;;;;;;3.10;100.00;101855.75;10171081;28;20092;-68
2023/04/06 07:50:41;;;;;;;11.85;9.93;;;;;;;3.43;100.00;101848.78;10160204;28;20049;-68
2023/04/06 07:55:38;;;;;;;22.63;9.65;;;;;;;3.64;100.00;101847.28;10173047;28;20123;-68
2023/04/06 08:00:35;;;;;;;10.30;8.32;;;;;;;3.95;100.00;101843.22;10170018;28;20060;-68
2023/04/06 08:05:32;;;;;;;10.45;8.75;;;;;;;4.30;100.00;101851.06;10176108;28;20169;-68
2023/04/06 08:10:28;;;;;;;12.00;7.88;;;;;;;4.43;100.00;101845.31;10169225;28;20475;-68
2023/04/06 08:15:25;;;;;;;10.68;8.20;;;;;;;4.66;100.00;101854.28;10182502;28;20046;-68
2023/04/06 08:20:21;;;;;;;10.10;9.15;;;;;;;4.83;100.00;101855.06;10162720;28;20053;-68
2023/04/06 08:25:18;;;;;;;9.32;8.18;;;;;;;4.98;100.00;101850.91;10172771;28;20058;-68
2023/04/06 08:30:19;;;;;;;12.25;9.07;;;;;;;5.07;100.00;101849.41;10169069;28;20046;-68
2023/04/06 08:35:15;;;;;;;9.00;8.07;;;;;;;5.24;100.00;101844.72;10169800;28;20669;-69
2023/04/06 08:40:13;;;;;;;12.68;10.52;;;;;;;5.41;100.00;101843.81;10168297;28;20078;-69
2023/04/06 08:45:10;;;;;;;10.43;8.73;;;;;;;5.60;100.00;101836.94;10165296;28;20065;-69
2023/04/06 08:50:11;;;;;;;11.48;9.13;;;;;;;5.81;100.00;101829.00;10181240;28;20569;-68
2023/04/06 08:55:08;;;;;;;12.65;8.32;;;;;;;6.13;100.00;101839.03;10168056;28;20054;-68
2023/04/06 09:00:07;;;;;;;12.23;9.45;;;;;;;6.37;100.00;101840.28;10176764;28;20132;-69
2023/04/06 09:05:04;;;;;;;9.48;8.48;;;;;;;6.43;100.00;101833.81;10175380;28;20047;-69
2023/04/06 09:10:01;;;;;;;8.98;8.07;;;;;;;6.59;100.00;101825.75;10170930;28;20039;-68
2023/04/06 09:14:59;;;;;;;10.57;8.02;;;;;;;6.80;100.00;101827.50;10175701;28;20054;-68
2023/04/06 09:19:56;;;;;;;10.20;8.20;;;;;;;7.04;100.00;101822.41;10166476;28;20440;-68
2023/04/06 09:24:54;;;;;;;8.77;7.97;;;;;;;7.27;100.00;101820.31;10167175;28;20074;-69
2023/04/06 09:29:50;;;;;;;8.70;7.90;;;;;;;7.31;100.00;101826.81;10186746;28;20319;-68
2023/04/06 09:34:48;;;;;;;9.48;8.55;;;;;;;7.27;100.00;101812.16;10174328;28;20052;-68
2023/04/06 09:39:46;;;;;;;9.18;8.25;;;;;;;7.58;100.00;101804.84;10179215;28;20038;-68
2023/04/06 09:44:43;;;;;;;10.55;7.85;;;;;;;7.79;100.00;101795.56;10169843;28;20041;-68
2023/04/06 09:49:39;;;;;;;9.13;7.82;;;;;;;8.03;100.00;101800.50;10175830;28;20050;-68
2023/04/06 09:54:37;;;;;;;9.68;8.77;;;;;;;8.33;100.00;101798.78;10194209;28;20559;-69
2023/04/06 09:59:55;;;;;;;9.48;7.78;;;;;;;8.67;100.00;101790.00;10187686;28;20045;-68
2023/04/06 10:05:36;;;;;;;13.25;8.35;;;;;;;8.90;100.00;101791.28;10177049;28;20053;-68
2023/04/06 10:10:32;;;;;;;9.77;8.30;;;;;;;9.73;86.03;101793.19;10168213;28;20126;-68
2023/04/06 10:15:30;;;;;;;8.30;7.57;;;;;;;9.95;77.31;101783.69;10176787;28;20085;-68
2023/04/06 10:20:41;;;;;;;9.68;7.70;;;;;;;11.10;72.03;101768.16;10164678;28;20056;-69
2023/04/06 10:25:38;;;;;;;9.13;8.18;;;;;;;10.99;63.77;101772.16;10184335;28;20937;-68
2023/04/06 10:30:41;;;;;;;9.35;8.45;;;;;;;11.86;100.00;67994.34;10176547;28;20563;-69
2023/04/06 10:35:38;;;;;;;9.40;8.18;;;;;;;13.47;49.55;101773.59;10184827;28;20128;-68
2023/04/06 10:40:39;;;;;;;8.60;7.80;;;;;;;14.57;45.22;101771.28;10179524;28;20078;-68
2023/04/06 10:45:37;;;;;;;9.95;8.88;;;;;;;14.96;43.20;101772.34;10174490;28;20669;-68
2023/04/06 10:50:36;;;;;;;9.68;8.85;;;;;;;14.77;40.58;101776.19;10173801;28;20576;-69
2023/04/06 10:55:34;;;;;;;9.35;7.97;;;;;;;14.98;41.46;101761.81;10207944;28;20042;-69
2023/04/06 11:00:31;;;;;;;9.48;8.57;;;;;;;16.04;35.88;101753.94;10172782;28;20045;-68
2023/04/06 11:05:49;;;;;;;9.90;8.85;;;;;;;15.83;35.97;101764.03;10171150;28;20132;-69
2023/04/06 11:10:46;;;;;;;9.30;8.45;;;;;;;14.33;40.54;101750.44;10174610;28;20050;-68
2023/04/06 11:15:46;;;;;;;10.00;8.98;;;;;;;15.51;40.11;101744.16;10162552;28;20057;-69
2023/04/06 11:20:47;;;;;;;10.23;9.23;;;;;;;15.80;37.38;101734.38;10169769;28;20424;-68
2023/04/06 11:25:51;;;;;;;9.98;9.10;;;;;;;15.80;37.45;101737.13;10176049;28;20084;-68
2023/04/06 11:30:48;;;;;;;11.50;9.30;;;;;;;15.98;36.97;101730.44;10180500;28;20088;-66
2023/04/06 11:35:46;;;;;;;12.05;9.70;;;;;;;16.71;35.04;101729.41;10165098;28;20038;-67
2023/04/06 11:40:42;;;;;;;10.43;9.10;;;;;;;16.74;35.49;101729.56;10168110;28;20133;-67
2023/04/06 11:45:42;;;;;;;11.77;9.48;;;;;;;16.50;35.50;101730.22;10165905;28;20096;-66
2023/04/06 11:50:38;;;;;;;12.15;9.40;;;;;;;17.21;33.48;101720.28;10180314;28;20056;-68
2023/04/06 11:55:38;;;;;;;11.27;10.07;;;;;;;16.89;33.95;101708.84;10171716;28;20041;-68
2023/04/06 12:00:36;;;;;;;10.60;9.48;;;;;;;16.95;33.56;101706.69;10168190;28;20552;-68
2023/04/06 12:05:33;;;;;;;10.80;9.75;;;;;;;17.75;32.17;101700.06;10163630;28;20053;-68
2023/04/06 12:10:30;;;;;;;12.38;9.50;;;;;;;17.98;30.37;101706.00;10164989;28;20050;-68
2023/04/06 12:15:26;;;;;;;10.80;9.70;;;;;;;18.88;30.00;101698.59;10170294;28;20073;-68
2023/04/06 12:20:23;;;;;;;10.90;9.80;;;;;;;19.09;30.60;101701.16;10168484;28;20054;-68
2023/04/06 12:25:23;;;;;;;11.98;10.10;;;;;;;19.57;27.68;101704.88;10164997;28;20072;-68
2023/04/06 12:30:19;;;;;;;11.30;10.20;;;;;;;19.32;27.56;101702.22;10176147;28;20133;-68
2023/04/06 12:35:16;;;;;;;10.52;9.45;;;;;;;20.19;28.50;101691.41;10159783;28;20169;-68
2023/04/06 12:40:14;;;;;;;13.63;10.00;;;;;;;21.21;25.83;101691.28;10170382;28;20078;-68
2023/04/06 12:45:11;;;;;;;13.35;10.25;;;;;;;20.25;26.51;101689.97;10163852;28;20080;-68
2023/04/06 12:50:08;;;;;;;10.82;9.82;;;;;;;20.91;26.17;101681.91;10171083;28;20077;-68
2023/04/06 12:55:05;;;;;;;11.63;9.20;;;;;;;21.30;25.51;101676.34;10163863;28;20046;-67
2023/04/06 13:00:02;;;;;;;10.35;9.35;;;;;;;20.48;25.88;101664.28;10169026;28;20133;-68
2023/04/06 13:05:02;;;;;;;13.85;9.48;;;;;;;21.21;24.96;101671.81;10177431;28;20070;-67
2023/04/06 13:09:59;;;;;;;10.45;9.45;;;;;;;21.12;25.56;101676.81;10171101;28;20116;-67
2023/04/06 13:14:55;;;;;;;10.60;9.50;;;;;;;20.51;25.91;101669.13;10172356;28;20109;-68
2023/04/06 13:19:52;;;;;;;11.07;9.98;;;;;;;21.42;24.56;101667.84;10170808;28;20050;-67
2023/04/06 13:24:48;;;;;;;11.60;10.20;;;;;;;22.20;24.91;101656.44;10173614;28;20526;-66
2023/04/06 13:29:45;;;;;;;11.13;9.32;;;;;;;21.79;24.87;101648.66;10171736;28;20046;-67
2023/04/06 13:34:44;;;;;;;10.73;9.63;;;;;;;22.00;24.29;101641.78;10167269;28;20074;-67
2023/04/06 13:39:41;;;;;;;13.23;9.20;;;;;;;22.84;23.21;101651.78;10174655;28;20044;-67
2023/04/06 13:44:37;;;;;;;11.55;9.82;;;;;;;22.07;23.60;101641.94;10169035;28;20069;-67
2023/04/06 13:49:35;;;;;;;12.35;10.23;;;;;;;22.12;23.88;101632.41;10166377;28;20038;-67
2023/04/06 13:54:31;;;;;;;10.82;9.73;;;;;;;22.48;23.26;101628.19;10171254;28;20141;-67
2023/04/06 13:59:35;;;;;;;10.25;9.25;;;;;;;20.45;27.74;101626.94;10186886;28;20440;-67
2023/04/06 14:04:32;;;;;;;10.90;9.80;;;;;;;20.74;25.16;101622.00;10171694;28;20605;-67
2023/04/06 14:09:29;;;;;;;12.43;10.35;;;;;;;20.70;26.17;101621.13;10174295;28;20050;-67
2023/04/06 14:14:26;;;;;;;9.93;8.93;;;;;;;22.05;24.14;101619.22;10184699;28;20049;-67
2023/04/06 14:19:23;;;;;;;12.48;10.02;;;;;;;20.79;24.76;101619.75;10177271;28;20052;-67
2023/04/06 14:24:20;;;;;;;11.63;10.30;;;;;;;19.84;27.96;101619.16;10178889;28;20058;-67
2023/04/06 14:29:17;;;;;;;11.45;10.25;;;;;;;21.89;24.39;101622.16;10162965;28;20042;-67
2023/04/06 14:34:15;;;;;;;10.98;9.95;;;;;;;21.76;25.97;101601.25;10165667;28;20479;-67
2023/04/06 14:39:12;;;;;;;10.55;9.55;;;;;;;21.58;25.30;101607.34;10167600;28;20782;-66
2023/04/06 14:44:11;;;;;;;11.63;10.50;;;;;;;20.72;27.16;101611.25;10174642;28;20128;-66
2023/04/06 14:49:08;;;;;;;11.15;10.05;;;;;;;20.44;27.70;101608.66;10170946;28;20132;-66
2023/04/06 14:54:05;;;;;;;10.45;9.40;;;;;;;20.11;27.89;101617.44;10185817;28;20516;-66
2023/04/06 14:59:01;;;;;;;11.10;10.10;;;;;;;18.66;30.64;101617.59;10172881;28;20664;-66
2023/04/06 15:03:59;;;;;;;9.98;9.05;;;;;;;18.29;31.93;101603.03;10176995;28;20507;-66
2023/04/06 15:08:55;;;;;;;12.88;9.75;;;;;;;18.06;31.28;101605.50;10175928;28;20042;-68
2023/04/06 15:13:52;;;;;;;11.63;10.02;;;;;;;18.26;29.69;101606.47;10174184;28;20042;-67
2023/04/06 15:18:48;;;;;;;11.55;9.55;;;;;;;19.06;29.17;101591.81;10183824;28;20123;-65
2023/04/06 15:23:45;;;;;;;11.20;9.75;;;;;;;19.37;28.54;101598.56;10180710;28;20092;-68
2023/04/06 15:28:42;;;;;;;10.15;9.15;;;;;;;19.28;27.93;101598.72;10169833;28;20046;-66
2023/04/06 15:33:38;;;;;;;10.80;9.70;;;;;;;20.04;28.43;101598.66;10179352;28;20042;-67
2023/04/06 15:38:35;;;;;;;11.00;9.90;;;;;;;20.00;26.72;101594.19;10189357;28;20053;-67
2023/04/06 15:43:31;;;;;;;12.77;9.57;;;;;;;19.42;29.23;101591.94;10175252;28;20100;-67
2023/04/06 15:48:30;;;;;;;10.10;9.15;;;;;;;20.02;28.64;101586.28;10175710;28;20061;-67
2023/04/06 15:53:27;;;;;;;10.25;9.15;;;;;;;20.33;26.96;101586.22;10178919;28;20042;-67
2023/04/06 15:58:23;;;;;;;11.52;9.80;;;;;;;19.75;27.31;101577.75;10168867;28;20554;-66
2023/04/06 16:03:20;;;;;;;10.27;9.27;;;;;;;18.96;28.35;101592.34;10178621;28;20041;-66
2023/04/06 16:08:18;;;;;;;10.90;9.85;;;;;;;18.67;31.65;101580.41;10171827;28;20152;-65
2023/04/06 16:13:14;;;;;;;10.35;9.35;;;;;;;19.13;28.85;101591.22;10178191;28;20136;-66
2023/04/06 16:18:11;;;;;;;9.98;8.93;;;;;;;18.62;30.72;101594.50;10177153;28;20081;-66
2023/04/06 16:23:07;;;;;;;10.90;9.38;;;;;;;18.34;31.36;101596.44;10171656;28;20670;-66
2023/04/06 16:28:04;;;;;;;10.63;9.60;;;;;;;17.90;30.40;101590.75;10175871;28;20072;-66
2023/04/06 16:33:01;;;;;;;11.55;10.45;;;;;;;15.58;34.80;101587.34;10179168;28;20072;-68
2023/04/06 16:37:59;;;;;;;12.25;8.77;;;;;;;17.09;32.18;101595.91;10167572;28;20070;-68
2023/04/06 16:42:56;;;;;;;11.23;9.23;;;;;;;16.98;36.72;101590.78;10149522;28;20050;-68
2023/04/06 16:47:52;;;;;;;10.63;9.52;;;;;;;16.87;33.49;101589.59;10172357;28;20088;-68
2023/04/06 16:52:49;;;;;;;12.10;9.00;;;;;;;15.75;37.69;101594.75;10168620;28;20532;-68
2023/04/06 16:57:47;;;;;;;9.90;8.90;;;;;;;15.68;39.53;101589.72;10159735;28;20056;-68
2023/04/06 17:02:46;;;;;;;11.65;9.25;;;;;;;14.33;45.17;101596.41;10173878;28;20045;-68
2023/04/06 17:07:43;;;;;;;10.55;9.20;;;;;;;14.25;42.32;101599.94;10178316;28;20042;-67
2023/04/06 17:12:39;;;;;;;10.68;9.00;;;;;;;14.17;50.11;101603.50;10173641;28;20070;-67
2023/04/06 17:17:36;;;;;;;10.82;9.73;;;;;;;13.88;47.54;101596.63;10175654;28;20125;-67
2023/04/06 17:22:33;;;;;;;12.00;9.43;;;;;;;13.88;47.54;101596.63;10183145;28;20065;-67
2023/04/06 17:27:30;;;;;;;13.25;9.50;;;;;;;12.98;59.97;101599.53;10162834;28;20073;-68
2023/04/06 17:32:28;;;;;;;9.05;8.15;;;;;;;12.98;59.97;101599.53;10180886;28;20046;-68
2023/04/06 17:37:25;;;;;;;10.10;9.10;;;;;;;12.45;58.34;101600.25;10177204;28;20481;-68
2023/04/06 17:42:21;;;;;;;9.57;8.57;;;;;;;12.09;74.03;101609.22;10174331;28;20039;-68
2023/04/06 17:47:19;;;;;;;10.77;8.57;;;;;;;11.75;74.10;101615.94;10181226;28;20120;-68
2023/04/06 17:52:15;;;;;;;12.00;9.95;;;;;;;11.43;75.61;101620.34;10190817;28;20054;-67
2023/04/06 17:57:12;;;;;;;12.95;9.57;;;;;;;11.25;79.33;101626.69;10176279;28;20065;-68
2023/04/06 18:02:08;;;;;;;9.65;8.18;;;;;;;11.08;80.88;101639.00;10176371;28;20117;-68
2023/04/06 18:07:05;;;;;;;11.13;8.52;;;;;;;11.08;80.88;101639.00;10182916;28;20504;-68
2023/04/06 18:12:02;;;;;;;10.77;8.65;;;;;;;10.65;90.34;101644.59;10180982;28;20041;-68
2023/04/06 18:16:58;;;;;;;13.10;9.25;;;;;;;10.23;88.86;101651.66;10174944;28;20042;-68
2023/04/06 18:21:54;;;;;;;11.18;9.55;;;;;;;10.21;86.44;101651.19;10167728;28;20049;-68
2023/04/06 18:26:51;;;;;;;12.20;10.52;;;;;;;10.07;87.41;101655.69;10186463;28;20054;-67
2023/04/06 18:31:50;;;;;;;11.60;9.70;;;;;;;10.10;89.39;101660.59;10179583;28;20077;-68
2023/04/06 18:36:46;;;;;;;12.07;9.50;;;;;;;9.86;99.63;101663.31;10183288;28;20527;-68
2023/04/06 18:41:43;;;;;;;10.48;9.43;;;;;;;9.63;96.98;101667.66;10181177;28;20439;-68
2023/04/06 18:46:42;;;;;;;12.13;10.50;;;;;;;9.50;98.67;101673.81;10180625;28;20137;-68
2023/04/06 18:51:41;;;;;;;11.48;10.23;;;;;;;9.44;98.26;101676.56;10169629;28;20046;-68
2023/04/06 18:56:39;;;;;;;11.93;10.63;;;;;;;9.53;100.00;101675.94;10171479;28;20053;-68
2023/04/06 19:01:39;;;;;;;13.07;9.77;;;;;;;9.37;98.00;101676.06;10163433;28;20130;-68
2023/04/06 19:06:36;;;;;;;11.80;10.02;;;;;;;9.20;100.00;101681.13;10167581;28;20050;-68
2023/04/06 19:11:33;;;;;;;14.95;10.48;;;;;;;8.89;100.00;101681.38;10169534;28;20479;-68
2023/04/06 19:16:29;;;;;;;11.85;10.50;;;;;;;8.89;100.00;101686.81;10170902;28;20500;-68
2023/04/06 19:21:26;;;;;;;15.52;10.25;;;;;;;8.83;100.00;101687.94;10164278;28;20042;-68
2023/04/06 19:26:26;;;;;;;14.38;9.75;;;;;;;8.63;100.00;101689.69;10166907;28;20044;-67
2023/04/06 19:31:23;;;;;;;13.43;10.65;;;;;;;8.69;100.00;101687.75;10180507;28;20070;-67
2023/04/06 19:36:20;;;;;;;14.80;10.82;;;;;;;8.53;100.00;101688.91;10174417;28;20080;-67
2023/04/06 19:41:17;;;;;;;12.15;9.50;;;;;;;8.45;100.00;101693.06;10177902;28;20064;-67
2023/04/06 19:46:14;;;;;;;12.82;10.20;;;;;;;8.26;100.00;101689.28;10177513;28;20045;-67
2023/04/06 19:51:12;;;;;;;11.85;9.20;;;;;;;8.34;100.00;101702.34;10173128;28;20045;-67
2023/04/06 19:56:09;;;;;;;13.18;9.90;;;;;;;8.02;100.00;101700.78;10163846;28;20057;-67
2023/04/06 20:01:05;;;;;;;14.48;10.10;;;;;;;8.12;100.00;101703.50;10173839;28;20096;-67
2023/04/06 20:06:02;;;;;;;13.85;9.73;;;;;;;7.99;100.00;101695.91;10171656;28;20046;-67
2023/04/06 20:11:04;;;;;;;14.48;10.25;;;;;;;7.67;100.00;101694.31;10176374;28;20459;-67
2023/04/06 20:16:00;;;;;;;13.20;10.68;;;;;;;7.61;100.00;101700.03;10166611;28;20046;-68
2023/04/06 20:20:57;;;;;;;11.82;9.23;;;;;;;7.75;100.00;101696.50;10161172;28;20515;-68
2023/04/06 20:25:53;;;;;;;12.75;9.82;;;;;;;7.61;100.00;101700.84;10174584;28;20042;-68
2023/04/06 20:30:51;;;;;;;15.73;10.20;;;;;;;7.65;100.00;101701.94;10165622;28;20065;-68
2023/04/06 20:35:57;;;;;;;15.38;10.85;;;;;;;7.57;100.00;101694.34;10167147;28;20057;-68
2023/04/06 20:40:57;;;;;;;14.38;10.18;;;;;;;7.53;100.00;101704.13;10167264;28;20050;-68
2023/04/06 20:45:56;;;;;;;14.52;10.27;;;;;;;7.45;100.00;101699.22;10173026;28;20463;-68
2023/04/06 20:50:53;;;;;;;14.05;10.23;;;;;;;7.33;100.00;101697.63;10164439;28;20137;-68
2023/04/06 20:55:49;;;;;;;14.77;11.00;;;;;;;7.21;100.00;101699.78;10160840;28;20066;-68
2023/04/06 21:00:48;;;;;;;14.55;11.32;;;;;;;7.10;100.00;101700.84;10166291;28;20523;-68
2023/04/06 21:05:52;;;;;;;13.15;9.43;;;;;;;7.09;100.00;101699.22;10176496;28;20584;-68
2023/04/06 21:10:48;;;;;;;15.85;10.40;;;;;;;7.09;100.00;101699.22;10175450;28;20046;-68
2023/04/06 21:15:45;;;;;;;15.40;11.18;;;;;;;6.94;100.00;101703.56;10187448;28;20046;-68
2023/04/06 21:20:42;;;;;;;13.38;10.25;;;;;;;6.84;100.00;101700.81;10180740;28;20137;-67
2023/04/06 21:25:39;;;;;;;16.10;12.10;;;;;;;6.61;100.00;101693.13;10177948;28;20070;-68
2023/04/06 21:30:36;;;;;;;17.92;10.38;;;;;;;6.68;100.00;101693.69;10178759;28;20046;-68
2023/04/06 21:35:37;;;;;;;20.75;11.15;;;;;;;6.70;100.00;101691.53;10190246;28;20263;-68
2023/04/06 21:40:34;;;;;;;14.63;11.15;;;;;;;6.49;100.00;101694.19;10175663;28;20566;-68
2023/04/06 21:45:31;;;;;;;13.02;9.75;;;;;;;6.56;100.00;101695.84;10174377;28;20520;-68
2023/04/06 21:50:28;;;;;;;16.48;9.45;;;;;;;6.51;100.00;101689.31;10177282;28;20092;-68
2023/04/06 21:55:24;;;;;;;13.82;10.20;;;;;;;6.50;100.00;101692.31;10180755;28;20042;-68
2023/04/06 22:00:21;;;;;;;18.17;11.73;;;;;;;6.32;100.00;101688.16;10169686;28;20054;-68
2023/04/06 22:05:18;;;;;;;13.02;9.77;;;;;;;6.27;100.00;101686.25;10175665;28;20052;-68
2023/04/06 22:10:14;;;;;;;13.43;9.73;;;;;;;6.14;100.00;101684.00;10175079;28;20039;-68
2023/04/06 22:15:11;;;;;;;16.70;11.05;;;;;;;6.14;100.00;101688.63;10162240;28;20145;-68
2023/04/06 22:20:08;;;;;;;14.85;10.02;;;;;;;6.04;100.00;101690.19;10177670;28;20038;-68
2023/04/06 22:25:05;;;;;;;14.40;9.40;;;;;;;5.96;100.00;101687.97;10175806;28;20093;-68
2023/04/06 22:30:03;;;;;;;13.93;9.93;;;;;;;5.93;100.00;101690.38;10176062;28;20042;-68